sensor_id;sensor_type;location;lat;lon;timestamp;P1;P4;P2;P0;N10;N4;N25;N1;N05;TS
78474;SPS30;67766;51.964;5.660;2023-12-29T00:01:47;3.7;3.4;2.9;2.1;;;;2.0;92.0;
78474;SPS30;67766;51.964;5.660;2023-12-29T00:04:17;5.0;4.6;3.8;2.7;;;;2.0;95.0;
78474;SPS30;67766;51.964;5.660;2023-12-29T00:06:46;4.2;3.9;3.3;2.4;;;;2.0;96.0;
78474;SPS30;67766;51.964;5.660;2023-12-29T00:09:16;3.5;3.2;2.7;2.0;;;;2.0;99.0;
78474;SPS30;67766;51.964;5.660;2023-12-29T00:11:47;3.2;3.0;2.5;1.9;;;;2.0;109.0;
78474;SPS30;67766;51.964;5.660;2023-12-29T00:14:17;3.5;3.2;2.6;1.9;;;;2.0;112.0;
78474;SPS30;67766;51.964;5.660;2023-12-29T00:16:46;4.2;3.9;3.1;2.2;;;;2.0;108.0;
78474;SPS30;67766;51.964;5.660;2023-12-29T00:19:16;4.2;3.8;3.2;2.2;;;;2.0;109.0;
78474;SPS30;67766;51.964;5.660;2023-12-29T00:21:45;4.4;4.1;3.3;2.2;;;;2.0;109.0;
78474;SPS30;67766;51.964;5.660;2023-12-29T00:24:14;3.9;3.6;2.9;2.0;;;;2.0;110.0;
78474;SPS30;67766;51.964;5.660;2023-12-29T00:26:44;4.8;4.4;3.6;2.6;;;;2.0;111.0;
78474;SPS30;67766;51.964;5.660;2023-12-29T00:29:15;4.3;4.0;3.4;2.5;;;;2.0;116.0;
78474;SPS30;67766;51.964;5.660;2023-12-29T00:31:44;3.8;3.5;3.0;2.2;;;;2.0;118.0;
78474;SPS30;67766;51.964;5.660;2023-12-29T00:34:14;3.7;3.4;2.9;2.1;;;;2.0;108.0;
78474;SPS30;67766;51.964;5.660;2023-12-29T00:36:43;5.8;5.4;4.5;3.3;;;;2.0;106.0;
78474;SPS30;67766;51.964;5.660;2023-12-29T00:39:15;6.5;6.2;5.5;4.6;;;;2.0;110.0;
78474;SPS30;67766;51.964;5.660;2023-12-29T00:41:44;3.8;3.5;3.1;2.5;;;;2.0;108.0;
78474;SPS30;67766;51.964;5.660;2023-12-29T00:44:14;3.5;3.3;2.9;2.3;;;;2.0;100.0;
78474;SPS30;67766;51.964;5.660;2023-12-29T00:46:43;4.2;3.9;3.2;2.3;;;;2.0;99.0;
78474;SPS30;67766;51.964;5.660;2023-12-29T00:49:12;3.8;3.5;2.9;2.1;;;;2.0;99.0;
78474;SPS30;67766;51.964;5.660;2023-12-29T00:51:43;4.7;4.3;3.5;2.4;;;;2.0;102.0;
78474;SPS30;67766;51.964;5.660;2023-12-29T00:54:12;4.4;4.1;3.3;2.3;;;;2.0;97.0;
78474;SPS30;67766;51.964;5.660;2023-12-29T00:56:49;4.2;3.9;3.3;2.4;;;;2.0;94.0;
78474;SPS30;67766;51.964;5.660;2023-12-29T00:59:19;4.2;3.9;3.2;2.4;;;;2.0;92.0;
78474;SPS30;67766;51.964;5.660;2023-12-29T01:01:49;4.0;3.7;3.1;2.3;;;;2.0;92.0;
78474;SPS30;67766;51.964;5.660;2023-12-29T01:04:18;3.9;3.6;3.0;2.1;;;;2.0;91.0;
78474;SPS30;67766;51.964;5.660;2023-12-29T01:06:48;4.8;4.4;3.6;2.5;;;;2.0;89.0;
78474;SPS30;67766;51.964;5.660;2023-12-29T01:09:17;5.3;4.9;4.0;2.8;;;;2.0;91.0;
78474;SPS30;67766;51.964;5.660;2023-12-29T01:11:47;4.5;4.2;3.5;2.5;;;;2.0;92.0;
78474;SPS30;67766;51.964;5.660;2023-12-29T01:14:16;4.1;3.8;3.1;2.3;;;;2.0;95.0;
78474;SPS30;67766;51.964;5.660;2023-12-29T01:16:45;4.3;3.9;3.2;2.2;;;;2.0;97.0;
78474;SPS30;67766;51.964;5.660;2023-12-29T01:19:15;4.0;3.7;3.2;2.4;;;;2.0;101.0;
78474;SPS30;67766;51.964;5.660;2023-12-29T01:21:44;4.0;3.8;3.2;2.5;;;;2.0;107.0;
78474;SPS30;67766;51.964;5.660;2023-12-29T01:24:14;4.2;3.9;3.3;2.5;;;;2.0;106.0;
78474;SPS30;67766;51.964;5.660;2023-12-29T01:26:43;3.4;3.2;2.7;2.1;;;;2.0;104.0;
78474;SPS30;67766;51.964;5.660;2023-12-29T01:29:12;3.6;3.4;2.9;2.2;;;;2.0;101.0;
78474;SPS30;67766;51.964;5.660;2023-12-29T01:31:42;4.1;3.8;3.2;2.4;;;;2.0;102.0;
78474;SPS30;67766;51.964;5.660;2023-12-29T01:34:12;3.7;3.4;2.9;2.1;;;;2.0;109.0;
78474;SPS30;67766;51.964;5.660;2023-12-29T01:36:42;4.0;3.7;3.1;2.2;;;;2.0;111.0;
78474;SPS30;67766;51.964;5.660;2023-12-29T01:39:11;4.4;4.1;3.4;2.4;;;;2.0;113.0;
78474;SPS30;67766;51.964;5.660;2023-12-29T01:41:41;3.8;3.5;2.9;2.1;;;;2.0;112.0;
78474;SPS30;67766;51.964;5.660;2023-12-29T01:44:17;3.9;3.6;3.0;2.1;;;;2.0;110.0;
78474;SPS30;67766;51.964;5.660;2023-12-29T01:46:50;4.0;3.7;3.0;2.2;;;;2.0;111.0;
78474;SPS30;67766;51.964;5.660;2023-12-29T01:49:20;4.1;3.8;3.2;2.4;;;;2.0;116.0;
78474;SPS30;67766;51.964;5.660;2023-12-29T01:51:52;4.3;4.0;3.4;2.5;;;;2.0;117.0;
78474;SPS30;67766;51.964;5.660;2023-12-29T01:54:25;3.6;3.3;2.8;2.1;;;;2.0;116.0;
78474;SPS30;67766;51.964;5.660;2023-12-29T01:56:58;4.0;3.7;3.2;2.4;;;;2.0;116.0;
78474;SPS30;67766;51.964;5.660;2023-12-29T01:59:30;4.6;4.3;3.7;2.8;;;;2.0;117.0;
78474;SPS30;67766;51.964;5.660;2023-12-29T02:02:01;4.0;3.8;3.2;2.4;;;;2.0;112.0;
78474;SPS30;67766;51.964;5.660;2023-12-29T02:04:31;3.8;3.5;3.0;2.3;;;;2.0;109.0;
78474;SPS30;67766;51.964;5.660;2023-12-29T02:07:01;3.7;3.5;2.9;2.2;;;;2.0;108.0;
78474;SPS30;67766;51.964;5.660;2023-12-29T02:09:32;3.9;3.6;3.1;2.3;;;;2.0;108.0;
78474;SPS30;67766;51.964;5.660;2023-12-29T02:12:02;3.7;3.4;2.9;2.2;;;;2.0;110.0;
78474;SPS30;67766;51.964;5.660;2023-12-29T02:14:32;3.4;3.2;2.7;2.0;;;;2.0;112.0;
78474;SPS30;67766;51.964;5.660;2023-12-29T02:17:04;3.3;3.1;2.6;2.0;;;;2.0;114.0;
78474;SPS30;67766;51.964;5.660;2023-12-29T02:19:44;3.9;3.7;3.1;2.4;;;;2.0;117.0;
78474;SPS30;67766;51.964;5.660;2023-12-29T02:22:17;3.1;2.9;2.5;1.9;;;;2.0;127.0;
78474;SPS30;67766;51.964;5.660;2023-12-29T02:24:47;3.2;3.0;2.6;2.1;;;;2.0;129.0;
78474;SPS30;67766;51.964;5.660;2023-12-29T02:27:29;3.6;3.4;3.0;2.4;;;;2.0;127.0;
78474;SPS30;67766;51.964;5.660;2023-12-29T02:30:10;4.1;3.9;3.4;2.8;;;;2.0;139.0;
78474;SPS30;67766;51.964;5.660;2023-12-29T02:32:45;3.7;3.6;3.2;2.6;;;;2.0;139.0;
78474;SPS30;67766;51.964;5.660;2023-12-29T02:35:17;3.7;3.5;3.1;2.4;;;;2.0;130.0;
78474;SPS30;67766;51.964;5.660;2023-12-29T02:37:52;3.4;3.2;2.8;2.3;;;;2.0;126.0;
78474;SPS30;67766;51.964;5.660;2023-12-29T02:40:22;3.2;3.0;2.7;2.2;;;;2.0;122.0;
78474;SPS30;67766;51.964;5.660;2023-12-29T02:42:56;3.5;3.3;2.9;2.3;;;;2.0;121.0;
78474;SPS30;67766;51.964;5.660;2023-12-29T02:45:26;3.5;3.4;3.0;2.4;;;;2.0;120.0;
78474;SPS30;67766;51.964;5.660;2023-12-29T02:47:56;3.2;3.1;2.8;2.3;;;;2.0;121.0;
78474;SPS30;67766;51.964;5.660;2023-12-29T02:50:25;3.3;3.1;2.8;2.3;;;;2.0;134.0;
78474;SPS30;67766;51.964;5.660;2023-12-29T02:52:56;4.4;4.2;3.8;3.1;;;;2.0;134.0;
78474;SPS30;67766;51.964;5.660;2023-12-29T02:55:25;3.2;3.0;2.7;2.1;;;;2.0;129.0;
78474;SPS30;67766;51.964;5.660;2023-12-29T02:57:55;3.7;3.5;3.0;2.4;;;;2.0;128.0;
78474;SPS30;67766;51.964;5.660;2023-12-29T03:00:25;4.3;4.0;3.4;2.6;;;;2.0;127.0;
78474;SPS30;67766;51.964;5.660;2023-12-29T03:02:54;4.0;3.7;3.1;2.3;;;;2.0;124.0;
78474;SPS30;67766;51.964;5.660;2023-12-29T03:05:24;4.5;4.1;3.4;2.4;;;;2.0;123.0;
78474;SPS30;67766;51.964;5.660;2023-12-29T03:07:55;5.0;4.6;3.7;2.6;;;;2.0;125.0;
78474;SPS30;67766;51.964;5.660;2023-12-29T03:10:27;5.2;4.8;3.9;2.8;;;;2.0;126.0;
78474;SPS30;67766;51.964;5.660;2023-12-29T03:12:58;4.2;3.8;3.1;2.2;;;;2.0;115.0;
78474;SPS30;67766;51.964;5.660;2023-12-29T03:15:27;5.4;5.0;4.1;2.8;;;;2.0;106.0;
78474;SPS30;67766;51.964;5.660;2023-12-29T03:17:57;4.2;3.9;3.1;2.2;;;;2.0;105.0;
78474;SPS30;67766;51.964;5.660;2023-12-29T03:20:26;5.3;4.9;3.9;2.7;;;;2.0;102.0;
78474;SPS30;67766;51.964;5.660;2023-12-29T03:22:56;3.7;3.4;2.7;1.8;;;;2.0;103.0;
78474;SPS30;67766;51.964;5.660;2023-12-29T03:25:25;4.3;3.9;3.2;2.2;;;;2.0;104.0;
78474;SPS30;67766;51.964;5.660;2023-12-29T03:27:54;3.9;3.6;2.9;2.0;;;;2.0;106.0;
78474;SPS30;67766;51.964;5.660;2023-12-29T03:30:24;5.1;4.7;3.8;2.6;;;;2.0;99.0;
78474;SPS30;67766;51.964;5.660;2023-12-29T03:32:55;3.8;3.5;2.8;2.0;;;;2.0;101.0;
78474;SPS30;67766;51.964;5.660;2023-12-29T03:35:25;5.2;4.8;3.9;2.7;;;;2.0;102.0;
78474;SPS30;67766;51.964;5.660;2023-12-29T03:37:54;5.0;4.6;3.6;2.4;;;;2.0;103.0;
78474;SPS30;67766;51.964;5.660;2023-12-29T03:40:24;5.2;4.7;3.7;2.4;;;;2.0;105.0;
78474;SPS30;67766;51.964;5.660;2023-12-29T03:42:53;5.3;4.8;3.8;2.5;;;;2.0;105.0;
78474;SPS30;67766;51.964;5.660;2023-12-29T03:45:23;5.3;4.8;3.8;2.5;;;;2.0;104.0;
78474;SPS30;67766;51.964;5.660;2023-12-29T03:47:52;5.5;5.0;4.0;2.7;;;;2.0;104.0;
78474;SPS30;67766;51.964;5.660;2023-12-29T03:50:22;5.6;5.1;4.0;2.6;;;;2.0;107.0;
78474;SPS30;67766;51.964;5.660;2023-12-29T03:52:51;5.4;4.9;3.8;2.5;;;;2.0;101.0;
78474;SPS30;67766;51.964;5.660;2023-12-29T03:55:21;6.2;5.6;4.4;2.8;;;;2.0;105.0;
78474;SPS30;67766;51.964;5.660;2023-12-29T03:57:51;5.6;5.1;3.9;2.5;;;;2.0;116.0;
78474;SPS30;67766;51.964;5.660;2023-12-29T04:00:20;6.6;5.9;4.6;2.9;;;;2.0;104.0;
78474;SPS30;67766;51.964;5.660;2023-12-29T04:02:50;6.3;5.7;4.3;2.6;;;;2.0;154.0;
78474;SPS30;67766;51.964;5.660;2023-12-29T04:05:20;6.0;5.4;4.0;2.4;;;;2.0;125.0;
78474;SPS30;67766;51.964;5.660;2023-12-29T04:07:49;6.6;5.9;4.4;2.5;;;;2.0;213.0;
78474;SPS30;67766;51.964;5.660;2023-12-29T04:10:18;7.4;6.6;5.0;3.0;;;;2.0;183.0;
78474;SPS30;67766;51.964;5.660;2023-12-29T04:12:48;7.0;6.3;4.9;3.0;;;;2.0;170.0;
78474;SPS30;67766;51.964;5.660;2023-12-29T04:15:17;6.5;5.9;4.5;2.9;;;;2.0;167.0;
78474;SPS30;67766;51.964;5.660;2023-12-29T04:17:47;6.4;5.8;4.5;2.8;;;;2.0;138.0;
78474;SPS30;67766;51.964;5.660;2023-12-29T04:20:16;6.0;5.4;4.1;2.5;;;;2.0;176.0;
78474;SPS30;67766;51.964;5.660;2023-12-29T04:22:46;6.0;5.4;4.2;2.7;;;;2.0;142.0;
78474;SPS30;67766;51.964;5.660;2023-12-29T04:25:16;6.2;5.6;4.3;2.7;;;;2.0;161.0;
78474;SPS30;67766;51.964;5.660;2023-12-29T04:27:45;6.8;6.1;4.7;3.0;;;;2.0;202.0;
78474;SPS30;67766;51.964;5.660;2023-12-29T04:30:15;5.5;5.0;3.9;2.6;;;;2.0;157.0;
78474;SPS30;67766;51.964;5.660;2023-12-29T04:32:46;5.0;4.5;3.6;2.4;;;;2.0;100.0;
78474;SPS30;67766;51.964;5.660;2023-12-29T04:35:16;5.3;4.8;3.8;2.5;;;;2.0;86.0;
78474;SPS30;67766;51.964;5.660;2023-12-29T04:37:45;6.0;5.5;4.4;2.9;;;;2.0;92.0;
78474;SPS30;67766;51.964;5.660;2023-12-29T04:40:16;5.8;5.3;4.3;2.9;;;;2.0;104.0;
78474;SPS30;67766;51.964;5.660;2023-12-29T04:42:46;6.4;5.8;4.6;3.0;;;;2.0;83.0;
78474;SPS30;67766;51.964;5.660;2023-12-29T04:45:16;6.2;5.6;4.4;2.9;;;;2.0;81.0;
78474;SPS30;67766;51.964;5.660;2023-12-29T04:47:45;6.0;5.5;4.3;2.8;;;;2.0;90.0;
78474;SPS30;67766;51.964;5.660;2023-12-29T04:50:14;6.7;6.0;4.6;2.9;;;;2.0;89.0;
78474;SPS30;67766;51.964;5.660;2023-12-29T04:52:44;6.9;6.2;4.6;2.7;;;;2.0;90.0;
78474;SPS30;67766;51.964;5.660;2023-12-29T04:55:13;6.4;5.7;4.3;2.5;;;;2.0;88.0;
78474;SPS30;67766;51.964;5.660;2023-12-29T04:57:43;6.7;6.0;4.5;2.7;;;;2.0;87.0;
78474;SPS30;67766;51.964;5.660;2023-12-29T05:00:13;8.2;7.4;5.6;3.4;;;;2.0;83.0;
78474;SPS30;67766;51.964;5.660;2023-12-29T05:02:43;6.9;6.2;4.8;2.9;;;;2.0;80.0;
78474;SPS30;67766;51.964;5.660;2023-12-29T05:05:12;7.5;6.8;5.1;3.1;;;;2.0;80.0;
78474;SPS30;67766;51.964;5.660;2023-12-29T05:07:42;6.5;5.9;4.6;3.0;;;;2.0;82.0;
78474;SPS30;67766;51.964;5.660;2023-12-29T05:10:11;6.4;5.8;4.5;2.9;;;;2.0;83.0;
78474;SPS30;67766;51.964;5.660;2023-12-29T05:12:41;6.4;5.8;4.6;3.0;;;;2.0;82.0;
78474;SPS30;67766;51.964;5.660;2023-12-29T05:15:12;7.4;6.7;5.1;3.2;;;;2.0;79.0;
78474;SPS30;67766;51.964;5.660;2023-12-29T05:17:42;6.6;6.0;4.6;2.9;;;;2.0;81.0;
78474;SPS30;67766;51.964;5.660;2023-12-29T05:20:11;6.0;5.4;4.2;2.6;;;;2.0;82.0;
78474;SPS30;67766;51.964;5.660;2023-12-29T05:22:43;7.0;6.3;4.8;2.9;;;;2.0;81.0;
78474;SPS30;67766;51.964;5.660;2023-12-29T05:25:12;6.9;6.1;4.5;2.5;;;;2.0;94.0;
78474;SPS30;67766;51.964;5.660;2023-12-29T05:27:42;7.3;6.5;4.8;2.7;;;;2.0;96.0;
78474;SPS30;67766;51.964;5.660;2023-12-29T05:30:12;7.5;6.7;4.9;2.8;;;;2.0;96.0;
78474;SPS30;67766;51.964;5.660;2023-12-29T05:32:42;6.8;6.1;4.6;2.8;;;;2.0;99.0;
78474;SPS30;67766;51.964;5.660;2023-12-29T05:35:11;7.3;6.6;5.0;3.0;;;;2.0;97.0;
78474;SPS30;67766;51.964;5.660;2023-12-29T05:37:41;8.1;7.2;5.4;3.1;;;;2.0;97.0;
78474;SPS30;67766;51.964;5.660;2023-12-29T05:40:10;7.1;6.4;4.8;2.9;;;;2.0;103.0;
78474;SPS30;67766;51.964;5.660;2023-12-29T05:42:40;5.8;5.2;4.0;2.4;;;;2.0;101.0;
78474;SPS30;67766;51.964;5.660;2023-12-29T05:45:10;7.2;6.5;4.9;2.8;;;;2.0;102.0;
78474;SPS30;67766;51.964;5.660;2023-12-29T05:47:39;7.6;6.8;5.1;2.9;;;;2.0;104.0;
78474;SPS30;67766;51.964;5.660;2023-12-29T05:50:09;7.5;6.7;5.0;2.9;;;;2.0;108.0;
78474;SPS30;67766;51.964;5.660;2023-12-29T05:52:39;7.2;6.5;4.8;2.8;;;;2.0;88.0;
78474;SPS30;67766;51.964;5.660;2023-12-29T05:55:08;6.7;6.0;4.6;2.7;;;;2.0;90.0;
78474;SPS30;67766;51.964;5.660;2023-12-29T05:57:38;6.3;5.6;4.2;2.5;;;;2.0;83.0;
78474;SPS30;67766;51.964;5.660;2023-12-29T06:00:08;6.5;5.8;4.2;2.4;;;;2.0;82.0;
78474;SPS30;67766;51.964;5.660;2023-12-29T06:02:41;6.1;5.4;4.0;2.3;;;;2.0;87.0;
78474;SPS30;67766;51.964;5.660;2023-12-29T06:05:12;7.1;6.3;4.7;2.6;;;;2.0;88.0;
78474;SPS30;67766;51.964;5.660;2023-12-29T06:07:41;6.8;6.1;4.5;2.5;;;;2.0;88.0;
78474;SPS30;67766;51.964;5.660;2023-12-29T06:10:11;5.4;4.9;3.7;2.2;;;;2.0;91.0;
78474;SPS30;67766;51.964;5.660;2023-12-29T06:12:40;5.3;4.8;3.7;2.3;;;;2.0;104.0;
78474;SPS30;67766;51.964;5.660;2023-12-29T06:15:12;6.1;5.5;4.2;2.5;;;;2.0;104.0;
78474;SPS30;67766;51.964;5.660;2023-12-29T06:17:41;5.6;5.0;3.8;2.4;;;;2.0;105.0;
78474;SPS30;67766;51.964;5.660;2023-12-29T06:20:12;6.3;5.7;4.3;2.5;;;;2.0;112.0;
78474;SPS30;67766;51.964;5.660;2023-12-29T06:22:41;5.4;4.9;3.8;2.5;;;;2.0;109.0;
78474;SPS30;67766;51.964;5.660;2023-12-29T06:25:11;6.1;5.6;4.4;2.9;;;;2.0;111.0;
78474;SPS30;67766;51.964;5.660;2023-12-29T06:27:42;5.3;4.8;3.8;2.5;;;;2.0;109.0;
78474;SPS30;67766;51.964;5.660;2023-12-29T06:30:12;4.9;4.5;3.6;2.4;;;;2.0;100.0;
78474;SPS30;67766;51.964;5.660;2023-12-29T06:32:42;5.8;5.4;4.3;2.9;;;;2.0;97.0;
78474;SPS30;67766;51.964;5.660;2023-12-29T06:35:12;5.8;5.3;4.3;2.9;;;;2.0;107.0;
78474;SPS30;67766;51.964;5.660;2023-12-29T06:37:41;5.3;4.8;3.8;2.6;;;;2.0;108.0;
78474;SPS30;67766;51.964;5.660;2023-12-29T06:40:11;5.4;4.9;3.9;2.5;;;;2.0;108.0;
78474;SPS30;67766;51.964;5.660;2023-12-29T06:42:41;6.2;5.6;4.4;2.8;;;;2.0;109.0;
78474;SPS30;67766;51.964;5.660;2023-12-29T06:45:10;4.6;4.2;3.3;2.2;;;;2.0;113.0;
78474;SPS30;67766;51.964;5.660;2023-12-29T06:47:40;4.7;4.3;3.3;2.2;;;;2.0;105.0;
78474;SPS30;67766;51.964;5.660;2023-12-29T06:50:10;6.4;5.8;4.4;2.8;;;;2.0;101.0;
78474;SPS30;67766;51.964;5.660;2023-12-29T06:52:40;4.6;4.1;3.2;2.0;;;;2.0;89.0;
78474;SPS30;67766;51.964;5.660;2023-12-29T06:55:10;3.9;3.6;2.8;1.8;;;;2.0;91.0;
78474;SPS30;67766;51.964;5.660;2023-12-29T06:57:39;5.9;5.3;4.2;2.6;;;;2.0;94.0;
78474;SPS30;67766;51.964;5.660;2023-12-29T07:00:09;4.6;4.2;3.3;2.2;;;;2.0;111.0;
78474;SPS30;67766;51.964;5.660;2023-12-29T07:02:39;4.0;3.6;2.9;2.0;;;;2.0;124.0;
78474;SPS30;67766;51.964;5.660;2023-12-29T07:05:09;4.0;3.6;2.9;2.0;;;;2.0;120.0;
78474;SPS30;67766;51.964;5.660;2023-12-29T07:07:39;4.9;4.4;3.5;2.3;;;;2.0;119.0;
78474;SPS30;67766;51.964;5.660;2023-12-29T07:10:11;4.7;4.3;3.4;2.2;;;;2.0;159.0;
78474;SPS30;67766;51.964;5.660;2023-12-29T07:12:41;4.2;3.8;3.0;2.0;;;;2.0;167.0;
78474;SPS30;67766;51.964;5.660;2023-12-29T07:15:11;4.1;3.8;3.0;2.1;;;;2.0;163.0;
78474;SPS30;67766;51.964;5.660;2023-12-29T07:17:42;4.4;4.0;3.3;2.3;;;;2.0;179.0;
78474;SPS30;67766;51.964;5.660;2023-12-29T07:20:11;2.9;2.6;2.1;1.5;;;;2.0;165.0;
78474;SPS30;67766;51.964;5.660;2023-12-29T07:22:43;4.2;3.9;3.2;2.2;;;;2.0;165.0;
78474;SPS30;67766;51.964;5.660;2023-12-29T07:25:13;4.1;3.8;3.2;2.4;;;;2.0;177.0;
78474;SPS30;67766;51.964;5.660;2023-12-29T07:27:42;3.5;3.3;2.8;2.1;;;;2.0;222.0;
78474;SPS30;67766;51.964;5.660;2023-12-29T07:30:12;4.2;4.0;3.4;2.7;;;;2.0;193.0;
78474;SPS30;67766;51.964;5.660;2023-12-29T07:32:42;3.8;3.6;3.1;2.5;;;;2.0;182.0;
78474;SPS30;67766;51.964;5.660;2023-12-29T07:35:12;3.9;3.7;3.1;2.4;;;;2.0;140.0;
78474;SPS30;67766;51.964;5.660;2023-12-29T07:37:43;4.2;4.0;3.4;2.7;;;;2.0;143.0;
78474;SPS30;67766;51.964;5.660;2023-12-29T07:40:13;4.1;3.9;3.4;2.7;;;;2.0;154.0;
78474;SPS30;67766;51.964;5.660;2023-12-29T07:42:43;3.5;3.3;2.9;2.4;;;;2.0;181.0;
78474;SPS30;67766;51.964;5.660;2023-12-29T07:45:17;3.5;3.3;3.0;2.4;;;;2.0;196.0;
78474;SPS30;67766;51.964;5.660;2023-12-29T07:47:46;4.7;4.4;3.8;2.9;;;;2.0;213.0;
78474;SPS30;67766;51.964;5.660;2023-12-29T07:50:16;4.0;3.7;3.2;2.4;;;;2.0;224.0;
78474;SPS30;67766;51.964;5.660;2023-12-29T07:52:46;4.5;4.2;3.6;2.8;;;;2.0;208.0;
78474;SPS30;67766;51.964;5.660;2023-12-29T07:55:15;3.7;3.5;3.1;2.5;;;;2.0;210.0;
78474;SPS30;67766;51.964;5.660;2023-12-29T07:57:45;4.3;4.1;3.6;2.9;;;;2.0;215.0;
78474;SPS30;67766;51.964;5.660;2023-12-29T08:00:16;3.6;3.4;3.0;2.4;;;;2.0;230.0;
78474;SPS30;67766;51.964;5.660;2023-12-29T08:02:45;4.4;4.2;3.8;3.2;;;;2.0;280.0;
78474;SPS30;67766;51.964;5.660;2023-12-29T08:05:15;3.4;3.3;2.9;2.4;;;;2.0;236.0;
78474;SPS30;67766;51.964;5.660;2023-12-29T08:07:47;3.8;3.6;3.2;2.7;;;;2.0;236.0;
78474;SPS30;67766;51.964;5.660;2023-12-29T08:10:16;3.5;3.3;3.0;2.5;;;;2.0;225.0;
78474;SPS30;67766;51.964;5.660;2023-12-29T08:12:45;3.4;3.2;2.9;2.4;;;;2.0;169.0;
78474;SPS30;67766;51.964;5.660;2023-12-29T08:15:17;3.4;3.2;2.9;2.4;;;;2.0;195.0;
78474;SPS30;67766;51.964;5.660;2023-12-29T08:17:47;2.6;2.5;2.3;1.9;;;;2.0;230.0;
78474;SPS30;67766;51.964;5.660;2023-12-29T08:20:16;3.0;2.9;2.7;2.2;;;;2.0;248.0;
78474;SPS30;67766;51.964;5.660;2023-12-29T08:22:48;3.5;3.3;3.1;2.6;;;;2.0;233.0;
78474;SPS30;67766;51.964;5.660;2023-12-29T08:25:17;3.4;3.2;3.0;2.6;;;;2.0;184.0;
78474;SPS30;67766;51.964;5.660;2023-12-29T08:27:47;2.9;2.8;2.6;2.2;;;;2.0;164.0;
78474;SPS30;67766;51.964;5.660;2023-12-29T08:30:16;3.2;3.1;2.9;2.4;;;;2.0;139.0;
78474;SPS30;67766;51.964;5.660;2023-12-29T08:32:46;3.6;3.5;3.2;2.7;;;;2.0;145.0;
78474;SPS30;67766;51.964;5.660;2023-12-29T08:35:15;3.3;3.1;2.9;2.5;;;;2.0;192.0;
78474;SPS30;67766;51.964;5.660;2023-12-29T08:37:45;2.9;2.9;2.7;2.4;;;;2.0;196.0;
78474;SPS30;67766;51.964;5.660;2023-12-29T08:40:15;3.3;3.2;3.0;2.7;;;;2.0;196.0;
78474;SPS30;67766;51.964;5.660;2023-12-29T08:42:44;3.2;3.1;3.0;2.6;;;;2.0;196.0;
78474;SPS30;67766;51.964;5.660;2023-12-29T08:45:14;3.0;2.9;2.7;2.4;;;;2.0;162.0;
78474;SPS30;67766;51.964;5.660;2023-12-29T08:47:43;3.0;2.9;2.8;2.5;;;;2.0;153.0;
78474;SPS30;67766;51.964;5.660;2023-12-29T08:50:13;3.2;3.2;3.0;2.7;;;;2.0;183.0;
78474;SPS30;67766;51.964;5.660;2023-12-29T08:52:42;3.3;3.2;3.0;2.7;;;;2.0;164.0;
78474;SPS30;67766;51.964;5.660;2023-12-29T08:55:12;2.7;2.7;2.6;2.3;;;;2.0;160.0;
78474;SPS30;67766;51.964;5.660;2023-12-29T08:57:41;2.6;2.6;2.4;2.2;;;;2.0;132.0;
78474;SPS30;67766;51.964;5.660;2023-12-29T09:00:11;3.4;3.3;3.2;2.9;;;;2.0;144.0;
78474;SPS30;67766;51.964;5.660;2023-12-29T09:02:41;3.0;2.9;2.8;2.5;;;;2.0;186.0;
78474;SPS30;67766;51.964;5.660;2023-12-29T09:05:13;3.3;3.2;3.1;2.7;;;;2.0;178.0;
78474;SPS30;67766;51.964;5.660;2023-12-29T09:07:43;3.1;3.1;2.9;2.6;;;;2.0;171.0;
78474;SPS30;67766;51.964;5.660;2023-12-29T09:10:12;2.4;2.4;2.3;2.1;;;;2.0;166.0;
78474;SPS30;67766;51.964;5.660;2023-12-29T09:12:42;3.0;3.0;2.8;2.6;;;;2.0;157.0;
78474;SPS30;67766;51.964;5.660;2023-12-29T09:15:11;2.3;2.3;2.2;2.0;;;;2.0;148.0;
78474;SPS30;67766;51.964;5.660;2023-12-29T09:17:41;2.8;2.8;2.7;2.4;;;;2.0;179.0;
78474;SPS30;67766;51.964;5.660;2023-12-29T09:20:12;2.2;2.2;2.0;1.8;;;;2.0;153.0;
78474;SPS30;67766;51.964;5.660;2023-12-29T09:22:42;2.6;2.6;2.4;2.2;;;;2.0;196.0;
78474;SPS30;67766;51.964;5.660;2023-12-29T09:25:12;2.7;2.7;2.6;2.3;;;;2.0;145.0;
78474;SPS30;67766;51.964;5.660;2023-12-29T09:27:41;2.7;2.7;2.5;2.3;;;;2.0;151.0;
78474;SPS30;67766;51.964;5.660;2023-12-29T09:30:16;2.6;2.6;2.5;2.3;;;;2.0;186.0;
78474;SPS30;67766;51.964;5.660;2023-12-29T09:32:45;2.8;2.7;2.6;2.4;;;;2.0;203.0;
78474;SPS30;67766;51.964;5.660;2023-12-29T09:35:15;3.3;3.2;3.1;2.9;;;;2.0;190.0;
78474;SPS30;67766;51.964;5.660;2023-12-29T09:37:45;3.4;3.3;3.3;3.0;;;;2.0;196.0;
78474;SPS30;67766;51.964;5.660;2023-12-29T09:40:15;2.4;2.4;2.3;2.2;;;;2.0;206.0;
78474;SPS30;67766;51.964;5.660;2023-12-29T09:42:45;2.8;2.7;2.6;2.4;;;;2.0;171.0;
78474;SPS30;67766;51.964;5.660;2023-12-29T09:45:15;2.4;2.4;2.3;2.1;;;;2.0;156.0;
78474;SPS30;67766;51.964;5.660;2023-12-29T09:47:53;2.1;2.1;2.0;1.8;;;;2.0;156.0;
78474;SPS30;67766;51.964;5.660;2023-12-29T09:50:26;2.0;2.0;1.9;1.7;;;;2.0;173.0;
78474;SPS30;67766;51.964;5.660;2023-12-29T09:52:56;3.1;3.0;2.9;2.6;;;;2.0;190.0;
78474;SPS30;67766;51.964;5.660;2023-12-29T09:55:28;2.4;2.3;2.2;2.0;;;;2.0;178.0;
78474;SPS30;67766;51.964;5.660;2023-12-29T09:57:59;2.2;2.2;2.1;1.9;;;;2.0;174.0;
78474;SPS30;67766;51.964;5.660;2023-12-29T10:00:31;1.9;1.9;1.8;1.6;;;;2.0;155.0;
78474;SPS30;67766;51.964;5.660;2023-12-29T10:03:02;2.2;2.1;2.1;1.9;;;;2.0;149.0;
78474;SPS30;67766;51.964;5.660;2023-12-29T10:05:33;2.0;1.9;1.9;1.7;;;;2.0;173.0;
78474;SPS30;67766;51.964;5.660;2023-12-29T10:08:05;2.0;1.9;1.9;1.7;;;;2.0;155.0;
78474;SPS30;67766;51.964;5.660;2023-12-29T10:10:39;1.7;1.7;1.7;1.5;;;;2.0;136.0;
78474;SPS30;67766;51.964;5.660;2023-12-29T10:13:12;2.1;2.0;2.0;1.8;;;;2.0;118.0;
78474;SPS30;67766;51.964;5.660;2023-12-29T10:15:46;2.3;2.2;2.2;2.0;;;;2.0;129.0;
78474;SPS30;67766;51.964;5.660;2023-12-29T10:18:27;1.9;1.9;1.9;1.8;;;;2.0;157.0;
78474;SPS30;67766;51.964;5.660;2023-12-29T10:21:01;2.0;2.0;2.0;1.9;;;;2.0;162.0;
78474;SPS30;67766;51.964;5.660;2023-12-29T10:23:38;2.6;2.6;2.6;2.5;;;;2.0;164.0;
78474;SPS30;67766;51.964;5.660;2023-12-29T10:26:12;3.8;3.8;3.8;3.6;;;;2.0;164.0;
78474;SPS30;67766;51.964;5.660;2023-12-29T10:28:42;3.7;3.7;3.7;3.6;;;;2.0;144.0;
78474;SPS30;67766;51.964;5.660;2023-12-29T10:31:14;2.6;2.6;2.6;2.5;;;;2.0;148.0;
78474;SPS30;67766;51.964;5.660;2023-12-29T10:33:44;2.1;2.1;2.1;2.0;;;;2.0;154.0;
78474;SPS30;67766;51.964;5.660;2023-12-29T10:36:18;2.2;2.2;2.2;2.1;;;;2.0;141.0;
78474;SPS30;67766;51.964;5.660;2023-12-29T10:38:48;2.4;2.4;2.4;2.2;;;;2.0;142.0;
78474;SPS30;67766;51.964;5.660;2023-12-29T10:41:22;2.4;2.4;2.4;2.3;;;;2.0;167.0;
78474;SPS30;67766;51.964;5.660;2023-12-29T10:43:52;1.9;1.9;1.9;1.8;;;;2.0;173.0;
78474;SPS30;67766;51.964;5.660;2023-12-29T10:46:25;1.9;1.9;1.9;1.8;;;;2.0;161.0;
78474;SPS30;67766;51.964;5.660;2023-12-29T10:48:55;1.9;1.9;1.9;1.8;;;;2.0;167.0;
78474;SPS30;67766;51.964;5.660;2023-12-29T10:51:38;1.6;1.6;1.6;1.5;;;;2.0;157.0;
78474;SPS30;67766;51.964;5.660;2023-12-29T10:54:08;1.8;1.8;1.8;1.7;;;;2.0;166.0;
78474;SPS30;67766;51.964;5.660;2023-12-29T10:56:49;1.6;1.6;1.6;1.6;;;;2.0;194.0;
78474;SPS30;67766;51.964;5.660;2023-12-29T10:59:32;1.8;1.8;1.8;1.7;;;;2.0;187.0;
78474;SPS30;67766;51.964;5.660;2023-12-29T11:02:02;1.8;1.8;1.8;1.7;;;;2.0;187.0;
78474;SPS30;67766;51.964;5.660;2023-12-29T11:04:32;1.7;1.7;1.7;1.7;;;;2.0;181.0;
78474;SPS30;67766;51.964;5.660;2023-12-29T11:07:02;1.8;1.8;1.8;1.7;;;;2.0;167.0;
78474;SPS30;67766;51.964;5.660;2023-12-29T11:09:32;1.7;1.7;1.7;1.7;;;;2.0;144.0;
78474;SPS30;67766;51.964;5.660;2023-12-29T11:12:03;1.7;1.7;1.7;1.6;;;;2.0;132.0;
78474;SPS30;67766;51.964;5.660;2023-12-29T11:14:34;2.2;2.2;2.2;2.1;;;;2.0;133.0;
78474;SPS30;67766;51.964;5.660;2023-12-29T11:17:04;1.8;1.8;1.8;1.7;;;;2.0;133.0;
78474;SPS30;67766;51.964;5.660;2023-12-29T11:19:37;2.3;2.3;2.3;2.2;;;;2.0;134.0;
78474;SPS30;67766;51.964;5.660;2023-12-29T11:22:08;2.1;2.1;2.1;2.0;;;;2.0;197.0;
78474;SPS30;67766;51.964;5.660;2023-12-29T11:24:38;2.2;2.2;2.1;1.9;;;;2.0;127.0;
78474;SPS30;67766;51.964;5.660;2023-12-29T11:27:08;2.3;2.3;2.2;2.0;;;;2.0;131.0;
78474;SPS30;67766;51.964;5.660;2023-12-29T11:29:39;2.1;2.1;2.1;1.9;;;;2.0;128.0;
78474;SPS30;67766;51.964;5.660;2023-12-29T11:32:12;2.6;2.6;2.5;2.3;;;;2.0;132.0;
78474;SPS30;67766;51.964;5.660;2023-12-29T11:34:51;2.7;2.6;2.5;2.3;;;;2.0;134.0;
78474;SPS30;67766;51.964;5.660;2023-12-29T11:37:26;2.1;2.1;2.0;1.7;;;;2.0;131.0;
78474;SPS30;67766;51.964;5.660;2023-12-29T11:40:09;2.2;2.1;2.0;1.8;;;;2.0;129.0;
78474;SPS30;67766;51.964;5.660;2023-12-29T11:42:47;2.1;2.0;1.9;1.6;;;;2.0;123.0;
78474;SPS30;67766;51.964;5.660;2023-12-29T11:45:28;2.2;2.1;1.9;1.7;;;;2.0;125.0;
78474;SPS30;67766;51.964;5.660;2023-12-29T11:48:03;1.9;1.8;1.7;1.4;;;;2.0;130.0;
78474;SPS30;67766;51.964;5.660;2023-12-29T11:50:33;2.7;2.6;2.3;2.0;;;;2.0;156.0;
78474;SPS30;67766;51.964;5.660;2023-12-29T11:53:07;2.5;2.4;2.2;1.9;;;;2.0;169.0;
78474;SPS30;67766;51.964;5.660;2023-12-29T11:55:38;2.3;2.2;2.0;1.7;;;;1.0;161.0;
78474;SPS30;67766;51.964;5.660;2023-12-29T11:58:24;2.5;2.4;2.1;1.7;;;;1.0;163.0;
78474;SPS30;67766;51.964;5.660;2023-12-29T12:00:55;2.5;2.4;2.1;1.6;;;;1.0;184.0;
78474;SPS30;67766;51.964;5.660;2023-12-29T12:03:26;2.7;2.6;2.2;1.7;;;;1.0;178.0;
78474;SPS30;67766;51.964;5.660;2023-12-29T12:05:58;2.8;2.7;2.3;1.8;;;;1.0;157.0;
78474;SPS30;67766;51.964;5.660;2023-12-29T12:08:31;3.4;3.2;2.7;2.0;;;;1.0;165.0;
78474;SPS30;67766;51.964;5.660;2023-12-29T12:14:07;2.7;2.6;2.1;1.6;;;;1.0;199.0;
78474;SPS30;67766;51.964;5.660;2023-12-29T12:16:49;3.3;3.0;2.4;1.7;;;;1.0;192.0;
78474;SPS30;67766;51.964;5.660;2023-12-29T12:19:20;4.0;3.7;3.0;2.2;;;;1.0;191.0;
78474;SPS30;67766;51.964;5.660;2023-12-29T12:21:54;4.2;3.9;3.2;2.4;;;;1.0;196.0;
78474;SPS30;67766;51.964;5.660;2023-12-29T12:24:24;4.1;3.8;3.0;2.1;;;;1.0;173.0;